Weather at Albany International Airport

Public forecast

Using degrees Fahrenheit for public forecast. Weather courtesy of forecast.io.

Current aviation weather report (METAR) for Albany International Airport

Retrieved 2020/09/30 17:51 UTC (30 minutes ago):

KALB 301751Z 24011G21KT 10SM FEW045 BKN060 18/08 A2965 RMK AO2 SLP041 60005 T01780083 10183 20106 50007

Aviation forecast (TAF) for Albany International Airport

Retrieved 2020/09/30 18:27 UTC (0 seconds ago):

TAF KALB 301724Z 3018/0118 23010G20KT P6SM BKN045 FM010000 20007KT P6SM FEW120 FM010900 18005KT P6SM VCSH BKN080 FM011700 24007KT P6SM SCT040